createdAt,value
2022-11-01T00:02:02.385Z,22.07
2022-11-01T00:04:30.540Z,22.63
2022-11-01T00:06:58.787Z,22.20
2022-11-01T00:09:26.732Z,22.43
2022-11-01T00:11:56.095Z,22.90
2022-11-01T00:14:24.346Z,22.27
2022-11-01T00:16:52.461Z,22.57
2022-11-01T00:19:20.714Z,23.27
2022-11-01T00:21:48.677Z,23.57
2022-11-01T00:24:16.719Z,22.63
2022-11-01T00:26:44.856Z,22.97
2022-11-01T00:29:14.800Z,21.67
2022-11-01T00:31:42.751Z,23.97
2022-11-01T00:34:10.587Z,22.00
2022-11-01T00:36:38.556Z,23.53
2022-11-01T00:39:07.345Z,24.43
2022-11-01T00:41:35.421Z,24.03
2022-11-01T00:44:03.470Z,24.57
2022-11-01T00:46:33.196Z,23.63
2022-11-01T00:49:01.704Z,23.80
2022-11-01T00:51:29.680Z,25.27
2022-11-01T00:53:57.588Z,24.97
2022-11-01T00:56:25.570Z,24.27
2022-11-01T00:58:53.655Z,26.03
2022-11-01T01:01:21.603Z,24.13
2022-11-01T01:03:51.002Z,25.13
2022-11-01T01:06:18.978Z,25.30
2022-11-01T01:08:46.885Z,24.27
2022-11-01T01:11:14.759Z,25.40
2022-11-01T01:13:42.898Z,26.33
2022-11-01T01:16:12.522Z,24.53
2022-11-01T01:18:40.461Z,25.53
2022-11-01T01:21:10.250Z,25.07
2022-11-01T01:23:38.499Z,25.43
2022-11-01T01:26:08.302Z,26.67
2022-11-01T01:28:41.669Z,25.30
2022-11-01T01:31:12.845Z,26.33
2022-11-01T01:33:40.918Z,25.23
2022-11-01T01:36:10.505Z,25.87
2022-11-01T01:38:38.450Z,24.73
2022-11-01T01:41:24.605Z,25.73
2022-11-01T01:43:52.483Z,24.33
2022-11-01T01:46:20.396Z,26.93
2022-11-01T01:48:53.998Z,27.27
2022-11-01T01:51:27.189Z,27.33
2022-11-01T01:53:58.422Z,26.63
2022-11-01T01:56:32.152Z,26.00
2022-11-01T01:59:03.782Z,27.47
2022-11-01T02:01:32.527Z,26.73
2022-11-01T02:04:00.756Z,25.93
2022-11-01T02:06:30.093Z,25.50
2022-11-01T02:09:00.706Z,27.73
2022-11-01T02:11:28.858Z,27.57
2022-11-01T02:13:58.163Z,28.87
2022-11-01T02:16:44.381Z,27.23
2022-11-01T02:19:56.429Z,28.40
2022-11-01T02:25:32.571Z,30.10
2022-11-01T02:28:16.988Z,31.10
2022-11-01T02:30:54.390Z,30.43
2022-11-01T02:33:31.318Z,30.53
2022-11-01T02:36:05.794Z,31.57
2022-11-01T02:38:39.066Z,31.40
2022-11-01T02:41:13.302Z,31.57
2022-11-01T02:43:50.251Z,31.50
2022-11-01T02:46:39.279Z,31.23
2022-11-01T02:49:11.062Z,33.37
2022-11-01T02:51:40.442Z,33.50
2022-11-01T02:54:10.632Z,34.63
2022-11-01T02:56:40.328Z,34.00
2022-11-01T02:59:17.104Z,34.70
2022-11-01T03:01:49.293Z,31.53
2022-11-01T03:04:18.784Z,32.20
2022-11-01T03:06:53.363Z,32.43
2022-11-01T03:09:21.324Z,34.83
2022-11-01T03:11:56.520Z,32.67
2022-11-01T03:14:31.486Z,34.10
2022-11-01T03:17:04.025Z,34.27
2022-11-01T03:19:42.945Z,34.67
2022-11-01T03:22:14.525Z,35.73
2022-11-01T03:24:49.344Z,34.23
2022-11-01T03:27:21.397Z,33.30
2022-11-01T03:29:57.095Z,34.17
2022-11-01T03:32:28.303Z,36.17
2022-11-01T03:35:00.683Z,34.20
2022-11-01T03:37:30.111Z,35.97
2022-11-01T03:40:02.849Z,36.07
2022-11-01T03:42:32.155Z,36.97
2022-11-01T03:45:04.315Z,36.17
2022-11-01T03:47:32.394Z,36.67
2022-11-01T03:50:16.255Z,34.00
2022-11-01T03:52:44.719Z,33.83
2022-11-01T03:55:22.104Z,33.73
2022-11-01T03:57:51.348Z,33.17
2022-11-01T04:00:21.087Z,35.57
2022-11-01T04:02:49.053Z,33.57
2022-11-01T04:05:19.094Z,34.97
2022-11-01T04:07:47.247Z,35.07
2022-11-01T04:10:16.534Z,35.43
2022-11-01T04:12:47.032Z,35.17
2022-11-01T04:15:33.498Z,32.20
2022-11-01T04:18:23.428Z,36.07
2022-11-01T04:20:53.812Z,33.63
2022-11-01T04:23:21.798Z,34.90
2022-11-01T04:25:49.874Z,34.60
2022-11-01T04:28:18.118Z,34.60
2022-11-01T04:30:46.012Z,35.17
2022-11-01T04:33:13.922Z,34.97
2022-11-01T04:35:41.819Z,35.63
2022-11-01T04:38:12.434Z,35.40
2022-11-01T04:40:40.701Z,34.93
2022-11-01T04:43:08.615Z,36.20
2022-11-01T04:45:36.685Z,36.70
2022-11-01T04:48:06.270Z,35.10
2022-11-01T04:50:34.838Z,33.53
2022-11-01T04:53:03.245Z,35.53
2022-11-01T04:55:32.882Z,34.53
2022-11-01T04:58:00.667Z,35.00
2022-11-01T05:00:29.861Z,34.57
2022-11-01T05:03:02.783Z,36.60
2022-11-01T05:05:31.302Z,35.70
2022-11-01T05:08:03.820Z,36.63
2022-11-01T05:10:33.804Z,35.70
2022-11-01T05:13:01.899Z,36.47
2022-11-01T05:15:30.267Z,39.07
2022-11-01T05:17:58.173Z,38.10
2022-11-01T05:20:26.416Z,35.53
2022-11-01T05:22:58.744Z,34.07
2022-11-01T05:25:26.710Z,36.67
2022-11-01T05:28:01.635Z,34.20
2022-11-01T05:30:29.640Z,38.13
2022-11-01T05:32:59.289Z,33.57
2022-11-01T05:35:27.450Z,36.97
2022-11-01T05:37:55.778Z,36.37
2022-11-01T05:40:24.587Z,37.60
2022-11-01T05:42:52.696Z,39.77
2022-11-01T05:45:21.986Z,35.33
2022-11-01T05:47:49.904Z,36.53
2022-11-01T05:50:18.302Z,37.57
2022-11-01T05:52:46.223Z,36.90
2022-11-01T05:55:14.319Z,38.23
2022-11-01T05:57:42.364Z,34.53
2022-11-01T06:00:11.788Z,35.13
2022-11-01T06:02:41.432Z,35.23
2022-11-01T06:05:10.230Z,35.00
2022-11-01T06:07:38.133Z,35.43
2022-11-01T06:10:06.882Z,35.17
2022-11-01T06:12:34.762Z,35.43
2022-11-01T06:15:02.604Z,35.80
2022-11-01T06:17:30.577Z,38.23
2022-11-01T06:19:59.854Z,38.83
2022-11-01T06:22:27.787Z,37.17
2022-11-01T06:24:55.652Z,36.90
2022-11-01T06:27:23.647Z,36.07
2022-11-01T06:29:51.510Z,38.47
2022-11-01T06:32:19.291Z,35.60
2022-11-01T06:34:47.349Z,37.33
2022-11-01T06:37:16.686Z,39.00
2022-11-01T06:39:44.767Z,38.77
2022-11-01T06:42:13.067Z,37.67
2022-11-01T06:44:40.860Z,40.10
2022-11-01T06:47:09.035Z,37.23
2022-11-01T06:49:36.905Z,35.97
2022-11-01T06:52:05.175Z,38.00
2022-11-01T06:54:34.493Z,35.10
2022-11-01T06:57:02.400Z,37.50
2022-11-01T06:59:30.329Z,38.17
2022-11-01T07:01:58.378Z,37.60
2022-11-01T07:04:28.976Z,37.57
2022-11-01T07:06:56.798Z,37.83
2022-11-01T07:09:25.011Z,36.40
2022-11-01T07:11:54.344Z,36.93
2022-11-01T07:14:22.183Z,36.47
2022-11-01T07:16:50.051Z,36.23
2022-11-01T07:19:18.064Z,36.50
2022-11-01T07:21:45.881Z,37.83
2022-11-01T07:24:13.705Z,36.87
2022-11-01T07:26:41.663Z,34.80
2022-11-01T07:29:10.890Z,36.80
2022-11-01T07:31:38.978Z,35.93
2022-11-01T07:34:07.091Z,34.57
2022-11-01T07:36:35.123Z,33.50
2022-11-01T07:39:02.988Z,34.13
2022-11-01T07:41:30.897Z,36.37
2022-11-01T07:43:58.813Z,34.43
2022-11-01T07:46:28.041Z,34.73
2022-11-01T07:48:55.884Z,33.27
2022-11-01T07:51:23.770Z,32.43
2022-11-01T07:53:51.653Z,32.17
2022-11-01T07:56:21.814Z,33.40
2022-11-01T07:58:49.660Z,33.70
2022-11-01T08:01:17.645Z,32.53
2022-11-01T08:03:47.031Z,30.00
2022-11-01T08:06:14.939Z,29.37
2022-11-01T08:08:42.846Z,29.27
2022-11-01T08:11:10.910Z,30.10
2022-11-01T08:13:38.764Z,26.73
2022-11-01T08:16:07.510Z,28.60
2022-11-01T08:18:35.435Z,27.17
2022-11-01T08:21:04.780Z,28.63
2022-11-01T08:23:32.789Z,27.07
2022-11-01T08:26:00.687Z,26.17
2022-11-01T08:28:30.473Z,28.13
2022-11-01T08:30:58.334Z,25.60
2022-11-01T08:33:26.517Z,27.27
2022-11-01T08:35:54.372Z,25.73
2022-11-01T08:38:23.566Z,25.07
2022-11-01T08:40:51.545Z,25.63
2022-11-01T08:43:19.367Z,23.77
2022-11-01T08:45:47.291Z,24.40
2022-11-01T08:48:15.287Z,24.20
2022-11-01T08:50:43.226Z,23.30
2022-11-01T08:53:12.444Z,22.87
2022-11-01T08:55:42.130Z,22.17
2022-11-01T08:58:10.642Z,22.27
2022-11-01T09:00:38.638Z,20.73
2022-11-01T09:03:06.533Z,21.93
2022-11-01T09:05:34.479Z,20.03
2022-11-01T09:08:02.888Z,19.47
2022-11-01T09:10:32.355Z,19.07
2022-11-01T09:13:02.628Z,16.90
2022-11-01T09:15:31.116Z,17.07
2022-11-01T09:17:59.140Z,16.03
2022-11-01T09:20:28.397Z,15.40
2022-11-01T09:22:56.336Z,13.97
2022-11-01T09:25:24.932Z,12.33
2022-11-01T09:27:52.791Z,11.40
2022-11-01T09:30:22.126Z,10.33
2022-11-01T09:32:50.388Z,11.57
2022-11-01T09:35:19.216Z,9.80
2022-11-01T09:37:47.071Z,11.00
2022-11-01T09:40:16.960Z,9.47
2022-11-01T09:42:46.464Z,7.50
2022-11-01T09:45:19.546Z,9.03
2022-11-01T09:47:51.357Z,7.67
2022-11-01T09:50:25.189Z,9.10
2022-11-01T09:52:55.086Z,12.23
2022-11-01T09:55:35.315Z,6.77
2022-11-01T09:58:10.193Z,7.13
2022-11-01T10:00:45.754Z,5.80
2022-11-01T10:03:33.818Z,5.65
2022-11-01T10:06:08.627Z,6.70
2022-11-01T10:08:49.180Z,5.70
2022-11-01T10:11:38.183Z,11.63
2022-11-01T10:14:18.318Z,6.10
2022-11-01T10:16:53.993Z,5.53
2022-11-01T10:19:26.262Z,5.45
2022-11-01T10:21:57.494Z,6.90
2022-11-01T10:24:34.868Z,6.07
2022-11-01T10:27:09.245Z,6.00
2022-11-01T10:29:47.544Z,5.63
2022-11-01T10:32:26.680Z,6.57
2022-11-01T10:35:00.422Z,9.23
2022-11-01T10:37:34.751Z,6.30
2022-11-01T10:40:09.137Z,11.87
2022-11-01T10:42:38.269Z,8.10
2022-11-01T10:45:09.011Z,5.40
2022-11-01T10:47:36.902Z,5.87
2022-11-01T10:50:15.923Z,5.47
2022-11-01T10:52:50.247Z,5.50
2022-11-01T10:55:23.014Z,5.30
2022-11-01T10:57:56.390Z,4.17
2022-11-01T11:00:24.912Z,4.20
2022-11-01T11:02:56.574Z,3.75
2022-11-01T11:05:29.224Z,3.00
2022-11-01T11:07:57.700Z,3.03
2022-11-01T11:10:28.343Z,5.30
2022-11-01T11:13:01.625Z,3.70
2022-11-01T11:15:38.510Z,2.57
2022-11-01T11:18:15.069Z,2.60
2022-11-01T11:20:45.103Z,2.45
2022-11-01T11:23:13.835Z,2.50
2022-11-01T11:25:44.938Z,1.97
2022-11-01T11:28:24.210Z,1.93
2022-11-01T11:30:52.575Z,2.10
2022-11-01T11:33:20.673Z,2.23
2022-11-01T11:36:00.059Z,2.30
2022-11-01T11:38:45.646Z,2.37
2022-11-01T11:41:26.946Z,2.00
2022-11-01T11:43:54.812Z,2.10
2022-11-01T11:46:24.688Z,2.57
2022-11-01T11:48:56.845Z,14.93
2022-11-01T11:51:29.820Z,5.47
2022-11-01T11:54:22.277Z,7.60
2022-11-01T11:56:52.933Z,3.03
2022-11-01T11:59:27.226Z,3.90
2022-11-01T12:02:00.561Z,2.30
2022-11-01T12:04:33.697Z,2.90
2022-11-01T12:07:03.168Z,2.30
2022-11-01T12:09:42.820Z,2.43
2022-11-01T12:12:18.255Z,2.70
2022-11-01T12:14:46.226Z,2.70
2022-11-01T12:17:35.908Z,2.77
2022-11-01T12:20:11.148Z,2.40
2022-11-01T12:22:43.640Z,2.90
2022-11-01T12:25:16.863Z,5.60
2022-11-01T12:27:53.192Z,4.87
2022-11-01T12:30:24.809Z,10.93
2022-11-01T12:32:54.830Z,3.00
2022-11-01T12:35:26.281Z,4.13
2022-11-01T12:38:18.927Z,3.53
2022-11-01T12:40:51.347Z,3.87
2022-11-01T12:43:24.492Z,3.63
2022-11-01T12:45:57.939Z,3.60
2022-11-01T12:48:31.517Z,7.03
2022-11-01T12:51:04.098Z,8.43
2022-11-01T12:53:40.655Z,4.23
2022-11-01T12:56:08.899Z,2.80
2022-11-01T12:58:37.566Z,2.90
2022-11-01T13:01:17.976Z,3.20
2022-11-01T13:03:51.779Z,2.90
2022-11-01T13:06:40.724Z,3.27
2022-11-01T13:09:14.854Z,3.47
2022-11-01T13:11:51.348Z,4.27
2022-11-01T13:14:35.359Z,3.33
2022-11-01T13:17:09.803Z,3.60
2022-11-01T13:19:45.867Z,2.93
2022-11-01T13:22:22.775Z,3.87
2022-11-01T13:25:00.444Z,3.03
2022-11-01T13:27:38.681Z,6.03
2022-11-01T13:30:11.621Z,3.70
2022-11-01T13:32:46.642Z,3.43
2022-11-01T13:35:36.911Z,3.00
2022-11-01T13:38:10.351Z,2.90
2022-11-01T13:40:47.639Z,3.03
2022-11-01T13:43:19.968Z,2.80
2022-11-01T13:46:23.938Z,3.40
2022-11-01T13:49:30.473Z,2.63
2022-11-01T13:52:01.837Z,3.10
2022-11-01T13:54:34.401Z,3.03
2022-11-01T13:57:13.812Z,3.90
2022-11-01T13:59:55.445Z,3.57
2022-11-01T14:02:57.417Z,7.33
2022-11-01T14:05:38.613Z,13.17
2022-11-01T14:08:37.263Z,9.67
2022-11-01T14:11:06.066Z,3.83
2022-11-01T14:13:38.695Z,3.03
2022-11-01T14:16:28.643Z,3.00
2022-11-01T14:19:21.333Z,2.77
2022-11-01T14:21:54.204Z,2.77
2022-11-01T14:24:29.465Z,3.30
2022-11-01T14:27:24.840Z,2.90
2022-11-01T14:29:55.268Z,2.63
2022-11-01T14:32:29.090Z,3.17
2022-11-01T14:35:01.376Z,2.80
2022-11-01T14:37:36.558Z,2.70
2022-11-01T14:40:22.500Z,2.63
2022-11-01T14:42:53.613Z,2.90
2022-11-01T14:45:32.018Z,2.90
2022-11-01T14:48:04.827Z,2.90
2022-11-01T14:50:43.958Z,3.33
2022-11-01T14:53:20.597Z,2.77
2022-11-01T14:55:48.463Z,2.90
2022-11-01T14:58:22.095Z,3.13
2022-11-01T15:00:54.659Z,3.03
2022-11-01T15:03:24.150Z,3.20
2022-11-01T15:05:53.482Z,2.67
2022-11-01T15:08:29.761Z,3.33
2022-11-01T15:11:01.220Z,3.00
2022-11-01T15:13:39.303Z,2.93
2022-11-01T15:16:16.881Z,2.90
2022-11-01T15:18:49.751Z,3.47
2022-11-01T15:21:24.164Z,3.03
2022-11-01T15:23:57.711Z,2.77
2022-11-01T15:26:28.222Z,2.80
2022-11-01T15:28:59.199Z,3.00
2022-11-01T15:31:29.070Z,3.10
2022-11-01T15:33:58.476Z,3.37
2022-11-01T15:36:31.593Z,3.23
2022-11-01T15:39:00.872Z,3.10
2022-11-01T15:41:32.012Z,3.00
2022-11-01T15:44:01.902Z,3.17
2022-11-01T15:46:34.207Z,3.13
2022-11-01T15:49:07.899Z,3.70
2022-11-01T15:51:42.056Z,3.10
2022-11-01T15:54:20.047Z,3.83
2022-11-01T15:56:54.247Z,5.50
2022-11-01T15:59:28.249Z,3.70
2022-11-01T16:02:01.060Z,3.60
2022-11-01T16:04:36.028Z,3.70
2022-11-01T16:07:06.802Z,3.60
2022-11-01T16:09:39.593Z,3.67
2022-11-01T16:12:16.178Z,3.57
2022-11-01T16:14:44.507Z,3.33
2022-11-01T16:17:33.764Z,3.27
2022-11-01T16:20:04.945Z,3.57
2022-11-01T16:22:39.493Z,3.80
2022-11-01T16:25:21.659Z,3.47
2022-11-01T16:27:55.474Z,3.43
2022-11-01T16:30:45.341Z,3.80
2022-11-01T16:33:22.098Z,4.13
2022-11-01T16:35:51.653Z,4.63
2022-11-01T16:38:24.558Z,4.50
2022-11-01T16:40:56.107Z,4.27
2022-11-01T16:43:24.303Z,4.40
2022-11-01T16:45:52.396Z,4.07
2022-11-01T16:48:27.265Z,4.57
2022-11-01T16:50:57.115Z,3.90
2022-11-01T16:53:26.895Z,3.90
2022-11-01T16:56:34.390Z,3.47
2022-11-01T16:58:57.339Z,3.60
2022-11-01T17:01:34.204Z,3.90
2022-11-01T17:04:06.018Z,3.60
2022-11-01T17:06:38.979Z,3.70
2022-11-01T17:09:13.178Z,4.17
2022-11-01T17:11:43.088Z,4.67
2022-11-01T17:14:15.162Z,4.53
2022-11-01T17:16:44.823Z,4.07
2022-11-01T17:19:23.524Z,4.40
2022-11-01T17:21:53.100Z,4.53
2022-11-01T17:24:25.487Z,4.47
2022-11-01T17:26:54.290Z,4.80
2022-11-01T17:29:22.178Z,5.97
2022-11-01T17:31:50.145Z,5.23
2022-11-01T17:34:19.656Z,5.53
2022-11-01T17:36:49.781Z,5.07
2022-11-01T17:39:17.804Z,4.97
2022-11-01T17:41:45.872Z,5.13
2022-11-01T17:44:13.809Z,5.43
2022-11-01T17:46:42.884Z,5.10
2022-11-01T17:49:14.410Z,4.70
2022-11-01T17:51:44.096Z,4.40
2022-11-01T17:54:12.025Z,4.60
2022-11-01T17:56:40.152Z,4.10
2022-11-01T17:59:08.737Z,4.17
2022-11-01T18:01:38.663Z,4.10
2022-11-01T18:04:07.419Z,4.00
2022-11-01T18:06:35.305Z,4.97
2022-11-01T18:09:19.454Z,4.73
2022-11-01T18:11:52.852Z,4.47
2022-11-01T18:14:32.345Z,4.53
2022-11-01T18:17:09.017Z,4.80
2022-11-01T18:19:49.370Z,4.53
2022-11-01T18:22:27.713Z,4.77
2022-11-01T18:25:02.729Z,4.87
2022-11-01T18:27:35.246Z,5.23
2022-11-01T18:30:08.931Z,4.83
2022-11-01T18:32:41.509Z,5.43
2022-11-01T18:35:24.043Z,5.40
2022-11-01T18:38:10.496Z,5.53
2022-11-01T18:40:50.222Z,5.33
2022-11-01T18:43:19.973Z,6.27
2022-11-01T18:46:18.647Z,5.47
2022-11-01T18:48:36.605Z,5.47
2022-11-01T18:51:12.369Z,5.30
2022-11-01T18:53:40.496Z,5.37
2022-11-01T18:56:22.436Z,5.20
2022-11-01T18:58:51.099Z,4.97
2022-11-01T19:01:20.926Z,4.93
2022-11-01T19:03:59.958Z,4.63
2022-11-01T19:06:28.252Z,4.87
2022-11-01T19:08:58.351Z,4.90
2022-11-01T19:11:29.943Z,4.50
2022-11-01T19:13:59.502Z,4.63
2022-11-01T19:16:27.470Z,4.50
2022-11-01T19:18:55.644Z,5.07
2022-11-01T19:21:25.288Z,5.30
2022-11-01T19:23:55.330Z,5.83
2022-11-01T19:26:29.078Z,4.93
2022-11-01T19:28:58.950Z,4.60
2022-11-01T19:31:30.453Z,4.73
2022-11-01T19:34:01.321Z,5.53
2022-11-01T19:39:22.842Z,4.60
2022-11-01T19:41:51.221Z,4.60
2022-11-01T19:44:24.317Z,5.03
2022-11-01T19:46:55.426Z,4.97
2022-11-01T19:49:25.648Z,5.40
2022-11-01T19:52:04.727Z,4.20
2022-11-01T19:54:36.319Z,4.80
2022-11-01T19:57:17.596Z,4.83
2022-11-01T19:59:48.302Z,5.33
2022-11-01T20:02:23.352Z,5.07
2022-11-01T20:04:56.376Z,5.33
2022-11-01T20:07:28.332Z,5.50
2022-11-01T20:09:58.848Z,5.10
2022-11-01T20:12:26.927Z,4.80
2022-11-01T20:14:56.429Z,4.27
2022-11-01T20:17:24.562Z,3.50
2022-11-01T20:19:53.731Z,3.50
2022-11-01T20:22:23.260Z,2.90
2022-11-01T20:24:51.939Z,3.10
2022-11-01T20:27:20.063Z,3.07
2022-11-01T20:29:48.478Z,3.07
2022-11-01T20:32:18.058Z,3.10
2022-11-01T20:34:46.324Z,2.40
2022-11-01T20:37:28.220Z,3.07
2022-11-01T20:39:56.709Z,3.10
2022-11-01T20:42:25.401Z,2.70
2022-11-01T20:44:53.514Z,2.77
2022-11-01T20:47:22.890Z,2.70
2022-11-01T20:49:51.002Z,3.50
2022-11-01T20:52:38.460Z,3.30
2022-11-01T20:55:09.458Z,2.90
2022-11-01T20:57:37.581Z,2.90
2022-11-01T21:00:06.427Z,2.77
2022-11-01T21:02:35.766Z,3.20
2022-11-01T21:05:16.295Z,2.70
2022-11-01T21:07:47.797Z,2.43
2022-11-01T21:10:32.471Z,3.10
2022-11-01T21:13:02.006Z,3.13
2022-11-01T21:15:36.592Z,3.33
2022-11-01T21:18:35.343Z,3.53
2022-11-01T21:21:31.733Z,3.60
2022-11-01T21:24:00.914Z,3.13
2022-11-01T21:26:32.681Z,3.70
2022-11-01T21:29:04.844Z,3.60
2022-11-01T21:31:33.718Z,3.13
2022-11-01T21:34:17.847Z,3.53
2022-11-01T21:36:47.982Z,3.93
2022-11-01T21:39:18.468Z,4.03
2022-11-01T21:41:47.635Z,3.83
2022-11-01T21:44:22.668Z,3.60
2022-11-01T21:46:52.333Z,3.70
2022-11-01T21:49:27.898Z,3.57
2022-11-01T21:51:57.767Z,3.23
2022-11-01T21:54:25.742Z,3.43
2022-11-01T21:56:54.045Z,3.40
2022-11-01T21:59:22.249Z,3.70
2022-11-01T22:01:50.894Z,2.77
2022-11-01T22:04:19.957Z,3.27
2022-11-01T22:06:52.189Z,3.00
2022-11-01T22:09:21.047Z,2.57
2022-11-01T22:11:48.952Z,3.27
2022-11-01T22:14:16.790Z,2.83
2022-11-01T22:16:44.919Z,2.63
2022-11-01T22:19:12.761Z,2.60
2022-11-01T22:21:40.977Z,2.47
2022-11-01T22:24:10.500Z,2.60
2022-11-01T22:26:38.429Z,2.63
2022-11-01T22:29:06.352Z,2.80
2022-11-01T22:31:34.314Z,2.83
2022-11-01T22:34:03.039Z,3.20
2022-11-01T22:36:35.779Z,3.40
2022-11-01T22:39:13.506Z,2.97
2022-11-01T22:41:43.053Z,2.90
2022-11-01T22:44:15.865Z,2.60
2022-11-01T22:46:53.444Z,2.93
2022-11-01T22:49:25.416Z,3.33
2022-11-01T22:51:57.208Z,3.33
2022-11-01T22:54:33.950Z,2.93
2022-11-01T22:57:11.531Z,3.27
2022-11-01T22:59:43.734Z,2.87
2022-11-01T23:02:26.904Z,2.70
2022-11-01T23:05:16.909Z,2.20
2022-11-01T23:07:47.851Z,2.70
2022-11-01T23:10:25.575Z,2.70
2022-11-01T23:13:17.723Z,2.50
2022-11-01T23:15:46.294Z,2.60
2022-11-01T23:18:19.559Z,2.70
2022-11-01T23:20:55.511Z,3.17
2022-11-01T23:23:24.255Z,2.23
2022-11-01T23:25:52.700Z,2.40
2022-11-01T23:28:25.380Z,3.00
2022-11-01T23:30:53.833Z,2.43
2022-11-01T23:33:23.256Z,2.97
2022-11-01T23:35:54.614Z,2.70
2022-11-01T23:38:27.892Z,2.27
2022-11-01T23:40:55.973Z,2.87
2022-11-01T23:43:32.997Z,2.57
2022-11-01T23:46:01.743Z,2.33
2022-11-01T23:48:30.120Z,2.87
2022-11-01T23:50:58.200Z,2.77
2022-11-01T23:53:33.663Z,2.40
2022-11-01T23:56:03.217Z,2.40
2022-11-01T23:58:35.478Z,2.67
